Time;durP1;ratioP1;P1;durP2;ratioP2;P2;SDS_P1;SDS_P2;PMS_P1;PMS_P2;Temp;Humidity;BMP_temperature;BMP_pressure;BME280_temperature;BME280_humidity;BME280_pressure;Samples;Min_cycle;Max_cycle;Signal;HPM_P1;HPM_P2
2022/11/02 00:01:55;;;;;;;6.65;1.50;;;13.00;99.90;;;;;;4231714;28;20670;-88
2022/11/02 00:03:57;;;;;;;9.43;1.20;;;13.00;99.90;;;;;;4233958;28;20043;-88
2022/11/02 00:05:58;;;;;;;7.70;1.30;;;12.90;99.90;;;;;;4232499;28;20131;-87
2022/11/02 00:07:59;;;;;;;9.73;1.77;;;12.90;99.90;;;;;;4215584;28;20450;-87
2022/11/02 00:09:59;;;;;;;5.55;2.03;;;12.90;99.90;;;;;;4215373;28;20154;-88
2022/11/02 00:12:00;;;;;;;4.97;0.95;;;12.90;99.90;;;;;;4233769;28;20062;-87
2022/11/02 00:14:01;;;;;;;9.68;1.27;;;12.90;99.90;;;;;;4233322;28;20177;-87
2022/11/02 00:16:05;;;;;;;7.63;1.00;;;12.90;99.90;;;;;;4215519;28;20603;-88
2022/11/02 00:18:10;;;;;;;7.45;1.10;;;12.90;99.90;;;;;;4232054;28;20501;-87
2022/11/02 00:20:13;;;;;;;5.68;1.83;;;12.80;99.90;;;;;;4232100;28;20054;-87
2022/11/02 00:22:14;;;;;;;8.85;1.52;;;12.80;99.90;;;;;;4231630;28;20556;-88
2022/11/02 00:24:16;;;;;;;9.90;1.75;;;12.80;99.90;;;;;;4232338;28;20044;-88
2022/11/02 00:26:17;;;;;;;6.07;1.13;;;12.80;99.90;;;;;;4231912;28;20133;-87
2022/11/02 00:28:19;;;;;;;8.90;1.80;;;12.70;99.90;;;;;;4231008;28;20123;-87
2022/11/02 00:30:20;;;;;;;3.90;0.80;;;12.70;99.90;;;;;;4233583;28;20071;-88
2022/11/02 00:32:21;;;;;;;5.65;0.93;;;12.70;99.90;;;;;;4232473;28;20044;-87
2022/11/02 00:34:22;;;;;;;3.05;0.95;;;12.60;99.90;;;;;;4231995;28;20062;-87
2022/11/02 00:36:24;;;;;;;4.82;1.00;;;12.50;99.90;;;;;;4231927;28;20047;-88
2022/11/02 00:38:25;;;;;;;5.78;1.52;;;12.40;99.90;;;;;;4231930;28;20074;-87
2022/11/02 00:40:26;;;;;;;7.13;1.00;;;12.30;99.90;;;;;;4232013;28;20052;-88
2022/11/02 00:42:27;;;;;;;2.65;1.10;;;12.20;99.90;;;;;;4231692;28;20093;-87
2022/11/02 00:44:27;;;;;;;5.95;1.17;;;12.10;99.90;;;;;;4231178;28;20115;-87
2022/11/02 00:46:28;;;;;;;4.95;0.65;;;12.00;99.90;;;;;;4248095;27;20051;-88
2022/11/02 00:48:29;;;;;;;4.78;1.00;;;11.90;99.90;;;;;;4232765;28;20470;-87
2022/11/02 00:50:30;;;;;;;4.70;0.80;;;11.80;99.90;;;;;;4232142;28;20039;-87
2022/11/02 00:52:31;;;;;;;4.63;1.48;;;11.80;99.90;;;;;;4231207;28;20043;-87
2022/11/02 00:54:32;;;;;;;3.92;0.70;;;11.70;99.90;;;;;;4231573;28;20079;-87
2022/11/02 00:56:33;;;;;;;3.20;0.93;;;11.70;99.90;;;;;;4214887;28;20493;-87
2022/11/02 00:58:34;;;;;;;4.80;0.88;;;11.70;99.90;;;;;;4233320;28;20047;-88
2022/11/02 01:00:36;;;;;;;5.13;0.60;;;11.60;99.90;;;;;;4233454;28;20865;-87
2022/11/02 01:02:37;;;;;;;4.63;0.75;;;11.60;99.90;;;;;;4233202;28;20035;-87
2022/11/02 01:04:38;;;;;;;1.77;0.60;;;11.60;99.90;;;;;;4234473;28;20047;-86
2022/11/02 01:06:40;;;;;;;2.80;0.90;;;11.60;99.90;;;;;;4232529;28;20526;-87
2022/11/02 01:08:41;;;;;;;4.97;1.17;;;11.60;99.90;;;;;;4232805;28;20047;-87
2022/11/02 01:10:42;;;;;;;6.50;1.15;;;11.50;99.90;;;;;;4233544;28;20039;-87
2022/11/02 01:12:44;;;;;;;4.03;0.82;;;11.50;99.90;;;;;;4215576;28;20036;-86
2022/11/02 01:14:48;;;;;;;5.00;0.73;;;11.50;99.90;;;;;;4233365;28;20035;-86
2022/11/02 01:16:49;;;;;;;6.50;1.38;;;11.50;99.90;;;;;;4232870;28;20393;-87
2022/11/02 01:18:54;;;;;;;2.80;0.75;;;11.50;99.90;;;;;;4232526;28;20085;-87
2022/11/02 01:20:56;;;;;;;2.92;0.60;;;11.40;99.90;;;;;;4232130;28;20051;-87
2022/11/02 01:22:58;;;;;;;3.80;0.52;;;11.40;99.90;;;;;;4232379;28;20120;-87
2022/11/02 01:24:58;;;;;;;4.00;0.60;;;11.40;99.90;;;;;;4231380;28;20043;-87
2022/11/02 01:26:59;;;;;;;3.42;0.63;;;11.30;99.90;;;;;;4231166;28;20410;-87
2022/11/02 01:29:00;;;;;;;3.13;0.82;;;11.30;99.90;;;;;;4218647;28;20048;-87
2022/11/02 01:31:01;;;;;;;1.35;0.57;;;11.30;99.90;;;;;;4199520;28;20040;-87
2022/11/02 01:33:04;;;;;;;4.13;0.50;;;11.30;99.90;;;;;;4216423;28;20082;-86
2022/11/02 01:35:05;;;;;;;5.60;0.60;;;11.30;99.90;;;;;;4216100;28;20047;-87
2022/11/02 01:37:09;;;;;;;1.45;0.38;;;11.20;99.90;;;;;;4231928;28;20032;-87
2022/11/02 01:39:11;;;;;;;4.90;1.48;;;11.20;99.90;;;;;;4215620;28;20059;-87
2022/11/02 01:41:12;;;;;;;2.67;0.32;;;11.20;99.90;;;;;;4215261;28;20043;-89
2022/11/02 01:43:32;;;;;;;4.32;0.45;;;11.20;99.90;;;;;;4216034;28;20397;-87
2022/11/02 01:45:34;;;;;;;3.22;0.57;;;11.20;99.90;;;;;;4216111;28;20123;-88
2022/11/02 01:47:39;;;;;;;3.25;0.55;;;11.10;99.90;;;;;;4215274;28;20482;-88
2022/11/02 01:49:43;;;;;;;3.03;0.47;;;11.10;99.90;;;;;;4197786;28;20055;-87
2022/11/02 01:51:58;;;;;;;5.15;0.55;;;11.10;99.90;;;;;;4217655;28;20051;-87
2022/11/02 01:54:07;;;;;;;2.83;0.40;;;11.10;99.90;;;;;;4231534;28;20058;-88
2022/11/02 01:56:11;;;;;;;1.75;0.40;;;11.10;99.90;;;;;;4231404;28;20044;-88
2022/11/02 01:58:13;;;;;;;3.45;0.43;;;11.10;99.90;;;;;;4214690;28;20065;-87
2022/11/02 02:00:15;;;;;;;0.77;0.30;;;11.10;99.90;;;;;;4232598;28;20054;-87
2022/11/02 02:02:20;;;;;;;2.13;0.40;;;11.10;99.90;;;;;;4215793;28;20105;-86
2022/11/02 02:04:22;;;;;;;3.90;0.70;;;11.10;99.90;;;;;;4225175;28;20044;-87
2022/11/02 02:06:27;;;;;;;0.70;0.30;;;11.10;99.90;;;;;;4231612;28;20404;-86
2022/11/02 02:08:28;;;;;;;6.88;0.70;;;11.20;99.90;;;;;;4229528;28;20478;-87
2022/11/02 02:10:29;;;;;;;2.38;0.40;;;11.20;99.90;;;;;;4232450;28;20095;-86
2022/11/02 02:12:31;;;;;;;2.33;0.50;;;11.20;99.90;;;;;;4231278;28;20501;-86
2022/11/02 02:14:33;;;;;;;2.90;0.50;;;11.10;99.90;;;;;;4214803;28;20048;-87
2022/11/02 02:17:17;;;;;;;1.88;0.35;;;11.10;99.90;;;;;;4226342;28;20121;-87
2022/11/02 02:19:31;;;;;;;0.30;0.20;;;11.00;99.90;;;;;;4212910;28;20051;-87
2022/11/02 02:21:50;;;;;;;1.23;0.55;;;10.90;99.90;;;;;;4195854;28;20147;-87
2022/11/02 02:23:56;;;;;;;0.60;0.22;;;10.90;99.90;;;;;;4226471;28;20056;-87
2022/11/02 02:26:24;;;;;;;0.50;0.30;;;10.90;99.90;;;;;;4226019;28;20090;-87
2022/11/02 02:29:03;;;;;;;3.93;0.40;;;10.90;99.90;;;;;;4225371;28;20452;-87
2022/11/02 02:31:27;;;;;;;;;;;10.90;99.90;;;;;;4185106;28;20510;-87
2022/11/02 02:33:38;;;;;;;2.45;0.35;;;10.90;99.90;;;;;;4223000;28;19919;-87
2022/11/02 02:35:44;;;;;;;5.65;1.30;;;10.90;99.90;;;;;;4215656;28;20040;-87
2022/11/02 02:37:54;;;;;;;4.30;0.77;;;11.00;99.90;;;;;;4224919;28;20161;-87
2022/11/02 02:40:01;;;;;;;2.97;1.45;;;10.90;99.90;;;;;;4232583;28;20035;-87
2022/11/02 02:42:18;;;;;;;3.60;0.90;;;10.90;99.90;;;;;;4230266;28;20507;-86
2022/11/02 02:44:27;;;;;;;3.20;1.30;;;10.90;99.90;;;;;;4231596;28;20089;-87
2022/11/02 02:46:35;;;;;;;3.22;1.02;;;10.80;99.90;;;;;;4232102;28;20446;-87
2022/11/02 02:48:40;;;;;;;1.83;0.80;;;10.80;99.90;;;;;;4231196;28;20058;-87
2022/11/02 02:50:48;;;;;;;3.45;0.98;;;10.80;99.90;;;;;;4231135;28;20070;-86
2022/11/02 02:52:51;;;;;;;5.68;1.63;;;10.90;99.90;;;;;;4230840;28;20043;-87
2022/11/02 02:54:57;;;;;;;7.25;1.88;;;10.90;99.90;;;;;;4231780;27;20096;-87
2022/11/02 02:57:06;;;;;;;5.60;1.23;;;10.90;99.90;;;;;;4231766;28;20051;-88
2022/11/02 02:59:23;;;;;;;7.10;1.40;;;11.00;99.90;;;;;;4231577;28;20047;-88
2022/11/02 03:01:24;;;;;;;8.23;1.48;;;10.90;99.90;;;;;;4230302;28;20485;-88
2022/11/02 03:03:28;;;;;;;7.85;1.20;;;11.00;99.90;;;;;;4227932;28;20481;-87
2022/11/02 03:05:34;;;;;;;4.43;0.98;;;11.00;99.90;;;;;;4214501;28;20040;-88
2022/11/02 03:07:34;;;;;;;7.35;1.30;;;11.10;99.90;;;;;;4214547;28;20115;-88
2022/11/02 03:10:01;;;;;;;6.85;1.42;;;11.10;99.90;;;;;;4213791;28;20379;-88
2022/11/02 03:12:17;;;;;;;6.50;1.30;;;11.10;99.90;;;;;;4221394;28;20104;-88
2022/11/02 03:14:37;;;;;;;4.70;0.80;;;11.10;99.90;;;;;;4230837;28;20051;-88
2022/11/02 03:17:05;;;;;;;5.03;0.77;;;11.10;99.90;;;;;;4229131;28;20725;-87
2022/11/02 03:19:21;;;;;;;3.00;0.40;;;11.10;99.90;;;;;;4231110;28;20051;-87
2022/11/02 03:21:42;;;;;;;1.67;0.60;;;11.10;99.90;;;;;;4234194;28;20569;-87
2022/11/02 03:24:04;;;;;;;4.45;1.20;;;11.10;99.90;;;;;;4234486;28;20047;-87
2022/11/02 03:26:17;;;;;;;3.30;0.85;;;11.10;99.90;;;;;;4221051;28;20106;-86
2022/11/02 03:28:38;;;;;;;2.00;0.47;;;11.10;99.90;;;;;;4222944;28;20047;-87
2022/11/02 03:30:45;;;;;;;5.82;0.82;;;11.00;99.90;;;;;;4233682;28;20051;-87
2022/11/02 03:33:23;;;;;;;2.90;0.90;;;11.10;99.90;;;;;;4216184;28;20080;-87
2022/11/02 03:35:35;;;;;;;2.20;0.50;;;11.10;99.90;;;;;;4217579;28;20068;-87
2022/11/02 03:37:52;;;;;;;7.53;1.27;;;11.00;99.90;;;;;;4217784;28;20055;-87
2022/11/02 03:39:57;;;;;;;3.00;0.50;;;11.10;99.90;;;;;;4217421;28;20048;-87
2022/11/02 03:42:00;;;;;;;4.55;1.00;;;11.10;99.90;;;;;;4217421;28;20082;-88
2022/11/02 03:44:13;;;;;;;3.33;0.82;;;11.00;99.90;;;;;;4216992;28;20076;-87
2022/11/02 03:46:17;;;;;;;2.92;0.73;;;11.00;99.90;;;;;;4217620;28;20569;-88
2022/11/02 03:48:19;;;;;;;4.65;0.50;;;11.00;99.90;;;;;;4217077;28;20054;-88
2022/11/02 03:50:22;;;;;;;1.38;0.75;;;11.00;99.90;;;;;;4215829;28;20048;-87
2022/11/02 03:52:28;;;;;;;5.63;0.50;;;11.00;99.90;;;;;;4217175;28;20067;-88
2022/11/02 03:54:48;;;;;;;3.15;0.77;;;10.90;99.90;;;;;;4216246;28;20059;-87
2022/11/02 03:56:57;;;;;;;6.90;0.82;;;10.90;99.90;;;;;;4217312;28;20096;-88
2022/11/02 03:58:57;;;;;;;11.32;0.70;;;10.90;99.90;;;;;;4217413;28;20059;-88
2022/11/02 04:01:06;;;;;;;5.35;0.57;;;10.90;99.90;;;;;;4221252;28;20497;-88
2022/11/02 04:03:11;;;;;;;4.60;0.95;;;10.90;99.90;;;;;;4218646;28;20149;-88
2022/11/02 04:05:12;;;;;;;3.10;0.70;;;10.90;99.90;;;;;;4234161;28;20048;-87
2022/11/02 04:07:14;;;;;;;7.05;0.65;;;10.90;99.90;;;;;;4234015;28;20413;-87
2022/11/02 04:09:16;;;;;;;6.30;1.17;;;10.90;99.90;;;;;;4234053;28;20122;-88
2022/11/02 04:15:56;;;;;;;6.22;0.98;;;10.80;99.90;;;;;;4233788;28;20051;-87
2022/11/02 04:20:16;;;;;;;;;;;10.80;99.90;;;;;;4234677;28;20044;-88
2022/11/02 04:26:58;;;;;;;6.43;0.93;;;10.80;99.90;;;;;;4235158;28;20048;-89
2022/11/02 04:28:59;;;;;;;2.42;0.50;;;10.80;99.90;;;;;;4227609;28;20042;-88
2022/11/02 04:31:01;;;;;;;7.47;0.95;;;10.80;99.90;;;;;;4222291;28;20048;-88
2022/11/02 04:35:23;;;;;;;2.75;0.70;;;10.80;99.90;;;;;;4239986;28;20485;-88
2022/11/02 04:39:43;;;;;;;7.45;1.02;;;10.90;99.90;;;;;;4241763;28;20055;-88
2022/11/02 04:41:44;;;;;;;7.38;1.55;;;10.90;99.90;;;;;;4239378;28;20116;-88
2022/11/02 04:43:45;;;;;;;7.80;1.10;;;11.00;99.90;;;;;;4232025;28;20056;-89
2022/11/02 04:45:45;;;;;;;4.78;0.73;;;11.00;99.90;;;;;;4226405;28;20409;-87
2022/11/02 04:47:47;;;;;;;4.93;0.50;;;10.90;99.90;;;;;;4238811;28;20051;-87
2022/11/02 04:49:48;;;;;;;5.78;0.73;;;10.90;99.90;;;;;;4234937;28;20050;-89
2022/11/02 04:51:49;;;;;;;10.07;0.90;;;10.80;99.90;;;;;;4237623;28;20044;-89
2022/11/02 04:53:52;;;;;;;9.38;1.35;;;10.90;99.90;;;;;;4234471;28;20043;-89
2022/11/02 04:55:52;;;;;;;5.93;0.73;;;10.80;99.90;;;;;;4233039;28;20040;-88
2022/11/02 04:57:53;;;;;;;9.57;1.15;;;10.80;99.90;;;;;;4232419;28;20078;-89
2022/11/02 04:59:55;;;;;;;6.80;0.50;;;10.80;99.90;;;;;;4233496;27;20066;-88
2022/11/02 05:01:56;;;;;;;5.18;0.80;;;10.80;99.90;;;;;;4230558;28;20059;-89
2022/11/02 05:03:57;;;;;;;4.95;0.93;;;10.70;99.90;;;;;;4224175;28;20044;-89
2022/11/02 05:05:58;;;;;;;10.35;1.00;;;10.70;99.90;;;;;;4234162;28;20405;-89
2022/11/02 05:08:00;;;;;;;8.07;0.93;;;10.70;99.90;;;;;;4233571;28;20043;-88
2022/11/02 05:10:00;;;;;;;5.35;1.67;;;10.70;99.90;;;;;;4233608;28;20039;-88
2022/11/02 05:12:03;;;;;;;4.05;0.73;;;10.70;99.90;;;;;;4233945;28;20047;-88
2022/11/02 05:14:04;;;;;;;6.93;0.93;;;10.60;99.90;;;;;;4230647;28;20040;-88
2022/11/02 05:16:06;;;;;;;5.30;0.95;;;10.70;99.90;;;;;;4219473;28;20104;-88
2022/11/02 05:18:07;;;;;;;10.77;1.08;;;10.70;99.90;;;;;;4233526;28;20083;-88
2022/11/02 05:20:10;;;;;;;7.65;0.90;;;10.70;99.90;;;;;;4231414;28;20035;-88
2022/11/02 05:22:12;;;;;;;8.63;1.10;;;10.70;99.90;;;;;;4228162;28;20040;-88
2022/11/02 05:24:12;;;;;;;3.22;0.90;;;10.70;99.90;;;;;;4216508;28;20470;-88
2022/11/02 05:26:14;;;;;;;4.20;0.77;;;10.70;99.90;;;;;;4231528;28;20051;-88
2022/11/02 05:28:14;;;;;;;4.53;0.95;;;10.70;99.90;;;;;;4232392;28;20130;-88
2022/11/02 05:30:15;;;;;;;5.82;0.68;;;10.60;99.90;;;;;;4214619;28;20040;-88
2022/11/02 05:32:16;;;;;;;10.70;1.02;;;10.60;99.90;;;;;;4232376;28;20549;-88
2022/11/02 05:34:16;;;;;;;4.68;0.70;;;10.60;99.90;;;;;;4232991;28;20485;-89
2022/11/02 05:36:17;;;;;;;9.43;1.20;;;10.60;99.90;;;;;;4233311;28;20117;-88
2022/11/02 05:38:18;;;;;;;7.10;1.05;;;10.60;99.90;;;;;;4232958;28;20047;-88
2022/11/02 05:40:18;;;;;;;6.43;1.08;;;10.60;99.90;;;;;;4226187;28;20044;-88
2022/11/02 05:42:19;;;;;;;3.22;0.90;;;10.60;99.90;;;;;;4215693;28;20043;-88
2022/11/02 05:44:21;;;;;;;9.80;1.30;;;10.60;99.90;;;;;;4231656;28;20066;-89
2022/11/02 05:46:21;;;;;;;4.85;0.88;;;10.60;99.90;;;;;;4232931;28;20047;-89
2022/11/02 05:48:24;;;;;;;5.32;1.00;;;10.60;99.90;;;;;;4248975;27;20591;-88
2022/11/02 05:50:25;;;;;;;8.50;1.13;;;10.60;99.90;;;;;;4232623;28;20051;-88
2022/11/02 05:52:26;;;;;;;6.13;1.20;;;10.60;99.90;;;;;;4214840;28;20048;-89
2022/11/02 05:54:27;;;;;;;9.63;0.80;;;10.50;99.90;;;;;;4231677;28;20047;-88
2022/11/02 05:56:28;;;;;;;9.90;1.58;;;10.60;99.90;;;;;;4231343;28;20397;-88
2022/11/02 05:58:28;;;;;;;7.88;1.20;;;10.60;99.90;;;;;;4232671;28;20047;-88
2022/11/02 06:00:29;;;;;;;5.88;1.42;;;10.60;99.90;;;;;;4233021;28;20377;-89
2022/11/02 06:02:33;;;;;;;5.07;1.02;;;10.60;99.90;;;;;;4232988;28;20132;-88
2022/11/02 06:04:34;;;;;;;8.60;1.27;;;10.60;99.90;;;;;;4220396;28;20145;-87
2022/11/02 06:06:35;;;;;;;5.80;1.55;;;10.60;99.90;;;;;;4216200;28;20048;-87
2022/11/02 06:08:38;;;;;;;10.05;1.55;;;10.70;99.90;;;;;;4217319;28;20409;-88
2022/11/02 06:10:42;;;;;;;5.00;1.15;;;10.70;99.90;;;;;;4216429;28;20040;-88
2022/11/02 06:12:43;;;;;;;8.05;1.55;;;10.70;99.90;;;;;;4214356;28;20052;-89
2022/11/02 06:14:44;;;;;;;7.70;1.25;;;10.60;99.90;;;;;;4215299;28;20402;-88
2022/11/02 06:16:45;;;;;;;7.90;1.15;;;10.60;99.90;;;;;;4242901;27;20059;-89
2022/11/02 06:18:46;;;;;;;4.45;1.02;;;10.60;99.90;;;;;;4230068;28;20116;-90
2022/11/02 06:20:47;;;;;;;4.40;1.13;;;10.70;99.90;;;;;;4216384;28;20054;-90
2022/11/02 06:22:48;;;;;;;10.27;0.93;;;10.70;99.90;;;;;;4226320;28;20075;-90
2022/11/02 06:24:50;;;;;;;4.68;1.10;;;10.60;99.90;;;;;;4232020;28;20056;-90
2022/11/02 06:26:52;;;;;;;5.10;1.08;;;10.70;99.90;;;;;;4232201;28;20039;-89
2022/11/02 06:28:53;;;;;;;8.73;1.55;;;10.70;99.90;;;;;;4235667;28;20524;-89
2022/11/02 06:30:56;;;;;;;6.90;1.23;;;10.70;99.90;;;;;;4227024;28;20055;-88
2022/11/02 06:32:57;;;;;;;11.07;1.80;;;10.70;99.90;;;;;;4197956;28;20052;-88
2022/11/02 06:34:58;;;;;;;7.60;1.30;;;10.70;99.90;;;;;;4225014;28;20045;-88
2022/11/02 06:36:59;;;;;;;9.52;1.20;;;10.70;99.90;;;;;;4205854;28;20513;-89
2022/11/02 06:39:00;;;;;;;7.45;1.65;;;10.70;99.90;;;;;;4231707;28;20047;-88
2022/11/02 06:41:07;;;;;;;5.65;1.23;;;10.70;99.90;;;;;;4232004;28;20414;-87
2022/11/02 06:43:08;;;;;;;8.25;1.45;;;10.70;99.90;;;;;;4214507;28;20048;-88
2022/11/02 06:45:09;;;;;;;20.05;3.08;;;10.70;99.90;;;;;;4215207;28;20048;-89
2022/11/02 06:47:11;;;;;;;7.60;1.10;;;10.70;99.90;;;;;;4230935;28;20127;-88
2022/11/02 06:49:13;;;;;;;10.60;1.52;;;10.70;99.90;;;;;;4223281;28;20046;-88
2022/11/02 06:51:14;;;;;;;6.63;1.05;;;11.20;99.90;;;;;;4234165;28;20043;-89
2022/11/02 06:53:15;;;;;;;8.77;1.35;;;10.70;99.90;;;;;;4233894;28;20060;-90
2022/11/02 06:55:17;;;;;;;12.70;1.33;;;10.80;99.90;;;;;;4231754;28;20043;-88
2022/11/02 06:57:20;;;;;;;6.95;1.95;;;10.70;99.90;;;;;;4216775;28;20044;-88
2022/11/02 06:59:20;;;;;;;4.03;0.98;;;10.70;99.90;;;;;;4233663;28;20549;-89
2022/11/02 07:01:21;;;;;;;6.00;1.20;;;10.80;99.90;;;;;;4233649;28;20028;-88
2022/11/02 07:03:22;;;;;;;5.47;0.98;;;10.70;99.90;;;;;;4234022;28;20035;-87
2022/11/02 07:05:23;;;;;;;4.32;0.75;;;10.80;99.90;;;;;;4237207;28;20040;-87
2022/11/02 07:07:25;;;;;;;4.07;1.00;;;10.70;99.90;;;;;;4238627;28;20041;-87
2022/11/02 07:09:26;;;;;;;5.00;0.88;;;10.80;99.90;;;;;;4239311;28;20040;-87
2022/11/02 07:11:27;;;;;;;8.63;1.58;;;10.80;99.90;;;;;;4240073;28;20073;-88
2022/11/02 07:13:29;;;;;;;8.55;1.50;;;10.80;99.90;;;;;;4239283;28;20103;-88
2022/11/02 07:15:30;;;;;;;5.25;0.77;;;10.80;99.90;;;;;;4239111;28;20047;-87
2022/11/02 07:17:30;;;;;;;5.28;1.13;;;10.80;99.90;;;;;;4239954;28;20043;-87
2022/11/02 07:19:31;;;;;;;10.48;1.20;;;10.90;99.90;;;;;;4235124;28;20051;-86
2022/11/02 07:21:32;;;;;;;7.38;1.13;;;10.80;99.90;;;;;;4224781;28;20074;-87
2022/11/02 07:23:33;;;;;;;6.50;1.08;;;10.80;99.90;;;;;;4221851;28;20114;-86
2022/11/02 07:25:34;;;;;;;7.45;1.42;;;10.90;99.90;;;;;;4228874;28;20054;-87
2022/11/02 07:27:39;;;;;;;9.48;1.02;;;10.90;99.90;;;;;;4236699;28;20541;-87
2022/11/02 07:29:39;;;;;;;4.72;1.15;;;10.90;99.90;;;;;;4234481;28;20088;-88
2022/11/02 07:31:40;;;;;;;10.68;1.55;;;11.30;99.90;;;;;;4233852;28;20051;-88
2022/11/02 07:33:42;;;;;;;5.78;1.40;;;10.90;99.90;;;;;;4231613;28;20658;-87
2022/11/02 07:35:44;;;;;;;12.13;1.17;;;10.80;99.90;;;;;;4216455;28;20505;-87
2022/11/02 07:38:00;;;;;;;12.63;2.85;;;10.80;99.90;;;;;;4226029;28;20052;-87
2022/11/02 07:40:05;;;;;;;7.13;1.30;;;10.80;99.90;;;;;;4233329;28;20381;-87
2022/11/02 07:42:06;;;;;;;5.10;1.60;;;10.80;99.90;;;;;;4231067;28;20127;-87
2022/11/02 07:44:08;;;;;;;3.92;1.50;;;10.80;99.90;;;;;;4232214;28;20055;-87
2022/11/02 07:46:10;;;;;;;11.73;1.45;;;10.80;99.90;;;;;;4231984;28;20048;-87
2022/11/02 07:48:12;;;;;;;2.42;1.23;;;10.80;99.90;;;;;;4233080;28;20100;-88
2022/11/02 07:50:14;;;;;;;12.55;1.95;;;10.80;99.90;;;;;;4233846;28;20052;-88
2022/11/02 07:52:15;;;;;;;5.65;1.35;;;10.80;99.90;;;;;;4234480;28;20047;-88
2022/11/02 07:54:16;;;;;;;4.72;0.63;;;10.80;99.90;;;;;;4234188;28;20396;-88
2022/11/02 07:56:17;;;;;;;7.50;0.80;;;10.80;99.90;;;;;;4233761;28;20485;-88
2022/11/02 07:58:20;;;;;;;6.43;1.20;;;10.80;99.90;;;;;;4234609;28;20040;-89
2022/11/02 08:00:21;;;;;;;4.65;0.73;;;10.80;99.90;;;;;;4234468;28;20054;-88
2022/11/02 08:02:22;;;;;;;5.57;1.40;;;10.80;99.90;;;;;;4232657;28;20051;-87
2022/11/02 08:04:24;;;;;;;3.63;0.77;;;10.80;99.90;;;;;;4231898;28;20051;-87
2022/11/02 08:06:24;;;;;;;4.28;0.77;;;10.00;99.90;;;;;;4234612;28;20078;-88
2022/11/02 08:08:25;;;;;;;3.92;0.70;;;10.90;99.90;;;;;;4234139;28;20063;-88
2022/11/02 08:10:27;;;;;;;6.75;1.30;;;10.90;99.90;;;;;;4233899;28;20051;-87
2022/11/02 08:12:28;;;;;;;6.35;1.27;;;11.00;99.90;;;;;;4235647;28;20487;-87
2022/11/02 08:14:29;;;;;;;3.08;1.13;;;11.10;99.90;;;;;;4233727;28;20085;-87
2022/11/02 08:16:30;;;;;;;6.60;1.00;;;11.20;99.90;;;;;;4225964;28;20064;-87
2022/11/02 08:18:31;;;;;;;2.90;1.50;;;11.30;99.90;;;;;;4219469;28;20059;-86
2022/11/02 08:20:34;;;;;;;6.55;1.02;;;11.50;99.90;;;;;;4236605;28;20047;-86
2022/11/02 08:22:38;;;;;;;2.97;0.60;;;11.60;99.90;;;;;;4226345;28;20123;-86
2022/11/02 08:24:39;;;;;;;6.25;1.10;;;11.60;99.90;;;;;;4217428;28;20127;-86
2022/11/02 08:26:40;;;;;;;8.45;0.80;;;11.60;99.90;;;;;;4234128;28;20040;-85
2022/11/02 08:28:44;;;;;;;4.65;1.08;;;11.50;99.90;;;;;;4234020;28;20105;-90
2022/11/02 08:30:45;;;;;;;3.80;0.77;;;11.60;99.90;;;;;;4229594;28;20052;-90
2022/11/02 08:32:47;;;;;;;9.52;0.60;;;11.80;99.90;;;;;;4223837;28;20040;-92
2022/11/02 08:34:48;;;;;;;7.78;0.80;;;12.20;99.90;;;;;;4213947;28;20044;-91
2022/11/02 08:36:49;;;;;;;4.50;1.48;;;12.40;99.90;;;;;;4234099;28;20109;-90
2022/11/02 08:38:51;;;;;;;6.00;1.20;;;12.90;99.90;;;;;;4218373;28;20497;-90
2022/11/02 08:40:58;;;;;;;7.40;0.70;;;13.30;99.90;;;;;;4231259;28;20040;-90
2022/11/02 08:43:13;;;;;;;5.15;0.60;;;14.20;99.90;;;;;;4236624;28;20547;-90
2022/11/02 08:45:14;;;;;;;5.47;0.77;;;15.00;99.90;;;;;;4235502;28;20313;-92
2022/11/02 08:47:21;;;;;;;6.47;1.00;;;15.50;99.90;;;;;;4236232;28;20051;-90
2022/11/02 08:49:22;;;;;;;11.43;2.00;;;15.10;99.90;;;;;;4235450;28;20048;-91
2022/11/02 08:51:24;;;;;;;5.60;1.13;;;15.00;99.90;;;;;;4218800;28;20437;-90
2022/11/02 08:53:26;;;;;;;4.35;0.57;;;15.40;99.90;;;;;;4217804;28;20466;-90
2022/11/02 08:55:27;;;;;;;2.03;1.08;;;15.90;99.90;;;;;;4217548;28;20056;-89
2022/11/02 08:57:28;;;;;;;4.20;1.75;;;16.30;99.90;;;;;;4234292;28;20055;-90
2022/11/02 08:59:28;;;;;;;4.15;1.20;;;16.60;99.90;;;;;;4236950;28;20043;-90
2022/11/02 09:01:37;;;;;;;8.02;1.42;;;16.70;99.90;;;;;;4235526;28;20498;-89
2022/11/02 09:03:39;;;;;;;2.10;0.90;;;16.80;99.90;;;;;;4217198;28;20044;-91
2022/11/02 09:05:44;;;;;;;6.80;1.00;;;17.00;99.90;;;;;;4234386;28;20036;-90
2022/11/02 09:07:46;;;;;;;5.13;0.80;;;16.90;99.90;;;;;;4225916;28;20052;-90
2022/11/02 09:09:48;;;;;;;3.38;0.90;;;16.70;99.90;;;;;;4218510;28;20048;-90
2022/11/02 09:11:49;;;;;;;8.73;1.60;;;16.80;99.70;;;;;;4217932;28;20486;-89
2022/11/02 09:13:51;;;;;;;6.68;1.05;;;17.30;99.90;;;;;;4222597;28;20043;-90
2022/11/02 09:15:54;;;;;;;8.63;0.70;;;17.20;99.00;;;;;;4235950;28;20059;-90
2022/11/02 09:17:56;;;;;;;7.03;1.05;;;17.40;97.90;;;;;;4217646;28;20055;-89
2022/11/02 09:19:57;;;;;;;4.85;0.40;;;17.70;99.00;;;;;;4222327;28;20044;-91
2022/11/02 09:21:58;;;;;;;4.95;1.13;;;17.50;98.50;;;;;;4220763;28;20455;-88
2022/11/02 09:24:05;;;;;;;6.72;0.93;;;17.40;98.30;;;;;;4234139;28;20552;-90
2022/11/02 09:26:07;;;;;;;9.23;1.50;;;16.90;98.20;;;;;;4235717;28;20035;-89
2022/11/02 09:28:08;;;;;;;9.57;1.55;;;16.00;99.30;;;;;;4218465;28;20064;-90
2022/11/02 09:30:10;;;;;;;6.90;1.35;;;15.50;99.90;;;;;;4217257;28;20073;-88
2022/11/02 09:32:12;;;;;;;4.38;0.60;;;14.30;99.90;;;;;;4234880;28;20450;-89
2022/11/02 09:34:13;;;;;;;11.45;1.85;;;14.70;99.90;;;;;;4235900;28;20054;-89
2022/11/02 09:36:14;;;;;;;8.07;0.98;;;15.10;99.90;;;;;;4235569;28;20058;-89
2022/11/02 09:38:21;;;;;;;6.72;1.48;;;15.40;99.90;;;;;;4235965;28;20517;-89
2022/11/02 09:40:25;;;;;;;9.70;2.03;;;15.20;99.90;;;;;;4236396;28;20046;-89
2022/11/02 09:42:52;;;;;;;9.80;1.50;;;14.90;99.90;;;;;;4235055;28;20092;-89
2022/11/02 09:45:00;;;;;;;7.13;0.98;;;14.80;99.90;;;;;;4218286;28;20056;-89
2022/11/02 09:47:01;;;;;;;11.50;1.50;;;14.60;99.90;;;;;;4234693;28;20044;-88
2022/11/02 09:49:15;;;;;;;13.18;1.15;;;14.30;99.90;;;;;;4234110;28;20281;-90
2022/11/02 09:51:32;;;;;;;6.72;0.85;;;14.20;99.90;;;;;;4235631;28;20104;-89
2022/11/02 09:54:08;;;;;;;17.17;1.90;;;14.30;99.90;;;;;;4218157;28;20091;-89
2022/11/02 09:56:11;;;;;;;10.20;1.35;;;14.40;99.90;;;;;;4235443;28;20054;-88
2022/11/02 09:58:18;;;;;;;7.15;1.20;;;14.30;99.90;;;;;;4230393;28;20070;-89
2022/11/02 10:00:19;;;;;;;4.95;0.98;;;14.10;99.90;;;;;;4217700;28;20110;-89
2022/11/02 10:02:43;;;;;;;7.68;1.30;;;13.90;99.90;;;;;;4232861;28;20123;-88
2022/11/02 10:04:53;;;;;;;7.97;0.88;;;13.90;99.90;;;;;;4233407;28;20070;-89
2022/11/02 10:07:24;;;;;;;6.32;0.80;;;13.80;99.90;;;;;;4229983;28;20091;-90
2022/11/02 10:09:47;;;;;;;5.45;1.45;;;13.70;99.90;;;;;;4221179;28;20055;-90
2022/11/02 10:12:15;;;;;;;7.60;1.27;;;13.60;99.90;;;;;;4217183;28;20094;-90
2022/11/02 10:14:36;;;;;;;10.43;1.30;;;13.60;99.90;;;;;;4218122;28;20059;-91
2022/11/02 10:16:54;;;;;;;9.52;1.08;;;13.50;99.90;;;;;;4226971;28;20505;-89
2022/11/02 10:18:55;;;;;;;7.13;1.35;;;13.40;99.90;;;;;;4235670;28;20044;-90
2022/11/02 10:20:59;;;;;;;6.72;1.20;;;13.70;99.90;;;;;;4233688;28;20097;-91
2022/11/02 10:23:07;;;;;;;7.40;1.13;;;14.00;99.90;;;;;;4220904;28;20106;-89
2022/11/02 10:25:15;;;;;;;10.98;1.25;;;14.40;99.10;;;;;;4207457;28;20078;-91
2022/11/02 10:27:25;;;;;;;5.20;0.57;;;14.60;98.70;;;;;;4218197;28;20116;-90
2022/11/02 10:29:45;;;;;;;9.45;1.00;;;14.70;98.20;;;;;;4233278;28;20122;-90
2022/11/02 10:31:47;;;;;;;5.40;0.65;;;14.90;97.40;;;;;;4234246;28;20094;-90
2022/11/02 10:33:49;;;;;;;9.63;1.58;;;15.00;97.80;;;;;;4236036;27;20047;-90
2022/11/02 10:36:05;;;;;;;7.28;1.33;;;15.00;97.10;;;;;;4251022;27;20433;-89
2022/11/02 10:38:15;;;;;;;13.57;2.38;;;15.10;97.00;;;;;;4216329;28;20076;-90
2022/11/02 10:40:52;;;;;;;7.25;0.93;;;15.30;97.40;;;;;;4234800;28;20040;-89
2022/11/02 10:43:05;;;;;;;6.40;1.08;;;15.30;97.20;;;;;;4214210;28;20055;-90
2022/11/02 10:45:28;;;;;;;3.80;0.60;;;15.00;96.40;;;;;;4210435;28;20076;-89
2022/11/02 10:48:10;;;;;;;8.48;1.40;;;14.80;96.70;;;;;;4234355;28;20044;-88
2022/11/02 10:50:27;;;;;;;6.72;1.13;;;14.40;96.60;;;;;;4234439;28;20514;-88
2022/11/02 10:52:42;;;;;;;4.88;1.00;;;14.20;97.40;;;;;;4233823;28;20497;-89
2022/11/02 10:54:43;;;;;;;9.27;0.82;;;13.90;97.30;;;;;;4233483;28;20059;-89
2022/11/02 10:56:46;;;;;;;6.53;1.20;;;13.70;97.70;;;;;;4235094;28;20040;-89
2022/11/02 10:58:58;;;;;;;7.65;1.30;;;13.50;97.70;;;;;;4232611;28;20059;-88
2022/11/02 11:01:07;;;;;;;6.47;0.90;;;13.50;97.70;;;;;;4229712;28;20048;-89
2022/11/02 11:03:14;;;;;;;5.88;0.77;;;13.40;97.80;;;;;;4217310;28;20044;-90
2022/11/02 11:05:18;;;;;;;8.77;1.45;;;13.40;98.10;;;;;;4216102;28;20044;-89
2022/11/02 11:07:26;;;;;;;7.10;1.10;;;13.40;98.30;;;;;;4231542;28;20053;-89